createdAt,value
2022-09-24T00:00:00.513Z,6.60
2022-09-24T00:01:12.803Z,6.60
2022-09-24T00:02:00.649Z,6.60
2022-09-24T00:03:00.485Z,6.60
2022-09-24T00:04:02.031Z,6.60
2022-09-24T00:05:00.429Z,6.60
2022-09-24T00:06:01.221Z,6.60
2022-09-24T00:07:00.359Z,6.60
2022-09-24T00:08:00.458Z,6.60
2022-09-24T00:09:00.371Z,6.60
2022-09-24T00:10:00.389Z,6.60
2022-09-24T00:11:02.952Z,6.60
2022-09-24T00:12:00.521Z,6.60
2022-09-24T00:13:00.403Z,6.60
2022-09-24T00:14:00.353Z,6.60
2022-09-24T00:15:00.448Z,6.60
2022-09-24T00:16:01.715Z,6.60
2022-09-24T00:17:00.461Z,7.10
2022-09-24T00:18:00.384Z,7.10
2022-09-24T00:19:01.086Z,7.10
2022-09-24T00:20:00.458Z,7.10
2022-09-24T00:21:00.675Z,7.10
2022-09-24T00:22:00.402Z,7.10
2022-09-24T00:23:00.850Z,7.10
2022-09-24T00:24:01.427Z,7.10
2022-09-24T00:25:00.333Z,7.10
2022-09-24T00:26:00.392Z,7.10
2022-09-24T00:27:00.649Z,7.10
2022-09-24T00:28:00.429Z,7.10
2022-09-24T00:29:00.513Z,7.10
2022-09-24T00:30:00.436Z,7.10
2022-09-24T00:31:04.964Z,7.10
2022-09-24T00:32:00.636Z,7.10
2022-09-24T00:33:00.393Z,7.10
2022-09-24T00:34:00.569Z,7.10
2022-09-24T00:35:00.390Z,7.10
2022-09-24T00:36:01.570Z,7.10
2022-09-24T00:37:00.367Z,7.10
2022-09-24T00:38:00.701Z,7.10
2022-09-24T00:39:00.364Z,7.10
2022-09-24T00:40:00.468Z,7.10
2022-09-24T00:41:01.323Z,7.10
2022-09-24T00:42:00.409Z,7.10
2022-09-24T00:43:00.709Z,7.10
2022-09-24T00:44:00.646Z,7.10
2022-09-24T00:45:00.453Z,7.10
2022-09-24T00:46:06.345Z,7.10
2022-09-24T00:47:00.592Z,6.10
2022-09-24T00:48:00.463Z,6.10
2022-09-24T00:49:01.792Z,6.10
2022-09-24T00:50:10.185Z,6.10
2022-09-24T00:51:01.835Z,6.10
2022-09-24T00:52:00.557Z,6.10
2022-09-24T00:53:03.100Z,6.10
2022-09-24T00:54:08.592Z,6.10
2022-09-24T00:55:00.557Z,6.10
2022-09-24T00:56:02.123Z,6.10
2022-09-24T00:57:00.342Z,6.10
2022-09-24T00:58:02.063Z,6.10
2022-09-24T00:59:00.860Z,6.10
2022-09-24T01:00:00.557Z,6.10
2022-09-24T01:01:03.523Z,6.10
2022-09-24T01:02:00.393Z,6.10
2022-09-24T01:03:02.704Z,6.10
2022-09-24T01:04:01.603Z,6.10
2022-09-24T01:05:00.730Z,6.10
2022-09-24T01:06:00.340Z,6.10
2022-09-24T01:07:00.505Z,6.10
2022-09-24T01:08:00.393Z,6.10
2022-09-24T01:09:00.394Z,6.10
2022-09-24T01:10:00.523Z,6.10
2022-09-24T01:11:01.297Z,6.10
2022-09-24T01:12:05.208Z,6.10
2022-09-24T01:13:06.361Z,6.10
2022-09-24T01:14:07.148Z,6.10
2022-09-24T01:15:07.741Z,6.10
2022-09-24T01:16:05.075Z,6.10
2022-09-24T01:17:10.175Z,4.60
2022-09-24T01:18:10.175Z,4.60
2022-09-24T01:19:10.187Z,4.60
2022-09-24T01:20:10.220Z,4.60
2022-09-24T01:21:10.206Z,4.60
2022-09-24T01:22:10.175Z,4.60
2022-09-24T01:23:07.749Z,4.60
2022-09-24T01:24:00.257Z,4.60
2022-09-24T01:25:06.464Z,4.60
2022-09-24T01:26:00.300Z,4.60
2022-09-24T01:27:10.180Z,4.60
2022-09-24T01:28:10.183Z,4.60
2022-09-24T01:29:10.191Z,4.60
2022-09-24T01:30:00.267Z,4.60
2022-09-24T01:31:04.651Z,4.60
2022-09-24T01:32:06.485Z,4.60
2022-09-24T01:33:02.186Z,4.60
2022-09-24T01:34:02.756Z,4.60
2022-09-24T01:35:02.281Z,4.60
2022-09-24T01:36:02.565Z,4.60
2022-09-24T01:37:01.224Z,4.60
2022-09-24T01:38:03.887Z,4.60
2022-09-24T01:39:00.953Z,4.60
2022-09-24T01:40:01.185Z,4.60
2022-09-24T01:41:02.329Z,4.60
2022-09-24T01:42:00.759Z,4.60
2022-09-24T01:43:02.933Z,4.60
2022-09-24T01:44:00.886Z,4.60
2022-09-24T01:45:00.729Z,4.60
2022-09-24T01:46:02.404Z,4.60
2022-09-24T01:47:00.413Z,6.40
2022-09-24T01:48:00.922Z,6.40
2022-09-24T01:49:00.285Z,6.40
2022-09-24T01:50:00.431Z,6.40
2022-09-24T01:51:05.282Z,6.40
2022-09-24T01:52:03.178Z,6.40
2022-09-24T01:53:10.006Z,6.40
2022-09-24T01:54:03.208Z,6.40
2022-09-24T01:55:01.986Z,6.40
2022-09-24T01:56:02.943Z,6.40
2022-09-24T01:57:10.190Z,6.40
2022-09-24T01:58:04.140Z,6.40
2022-09-24T01:59:01.884Z,6.40
2022-09-24T02:00:00.326Z,6.40
2022-09-24T02:01:10.187Z,6.40
2022-09-24T02:02:03.588Z,6.40
2022-09-24T02:03:10.183Z,6.40
2022-09-24T02:04:05.025Z,6.40
2022-09-24T02:05:10.187Z,6.40
2022-09-24T02:06:10.188Z,6.40
2022-09-24T02:07:02.351Z,6.40
2022-09-24T02:08:04.654Z,6.40
2022-09-24T02:09:00.276Z,6.40
2022-09-24T02:10:00.820Z,6.40
2022-09-24T02:11:01.303Z,6.40
2022-09-24T02:12:04.809Z,6.40
2022-09-24T02:13:02.399Z,6.40
2022-09-24T02:14:03.716Z,6.40
2022-09-24T02:15:05.437Z,6.40
2022-09-24T02:16:02.352Z,6.40
2022-09-24T02:17:02.375Z,5.20
2022-09-24T02:18:03.498Z,5.20
2022-09-24T02:19:03.002Z,5.20
2022-09-24T02:20:01.737Z,5.20
2022-09-24T02:21:02.997Z,5.20
2022-09-24T02:22:00.339Z,5.20
2022-09-24T02:23:01.064Z,5.20
2022-09-24T02:24:04.195Z,5.20
2022-09-24T02:25:02.948Z,5.20
2022-09-24T02:26:00.551Z,5.20
2022-09-24T02:27:00.314Z,5.20
2022-09-24T02:28:00.477Z,5.20
2022-09-24T02:29:00.340Z,5.20
2022-09-24T02:30:00.476Z,5.20
2022-09-24T02:31:03.915Z,5.20
2022-09-24T02:32:01.779Z,5.20
2022-09-24T02:33:00.481Z,5.20
2022-09-24T02:34:04.451Z,5.20
2022-09-24T02:35:02.277Z,5.20
2022-09-24T02:36:00.585Z,5.20
2022-09-24T02:37:10.187Z,5.20
2022-09-24T02:38:05.441Z,5.20
2022-09-24T02:39:00.305Z,5.20
2022-09-24T02:40:00.543Z,5.20
2022-09-24T02:41:00.459Z,5.20
2022-09-24T02:42:00.896Z,5.20
2022-09-24T02:43:00.321Z,5.20
2022-09-24T02:44:00.370Z,5.20
2022-09-24T02:45:00.272Z,5.20
2022-09-24T02:46:00.521Z,5.20
2022-09-24T02:47:00.345Z,5.70
2022-09-24T02:48:00.383Z,5.70
2022-09-24T02:49:00.275Z,5.70
2022-09-24T02:50:00.307Z,5.70
2022-09-24T02:51:00.305Z,5.70
2022-09-24T02:52:00.415Z,5.70
2022-09-24T02:53:00.463Z,5.70
2022-09-24T02:54:00.389Z,5.70
2022-09-24T02:55:00.346Z,5.70
2022-09-24T02:56:00.372Z,5.70
2022-09-24T02:57:00.283Z,5.70
2022-09-24T02:58:00.319Z,5.70
2022-09-24T02:59:00.489Z,5.70
2022-09-24T03:00:00.458Z,5.70
2022-09-24T03:01:00.286Z,5.70
2022-09-24T03:02:00.427Z,5.70
2022-09-24T03:03:00.418Z,5.70
2022-09-24T03:04:00.836Z,5.70
2022-09-24T03:05:00.398Z,5.70
2022-09-24T03:06:00.295Z,5.70
2022-09-24T03:07:00.290Z,5.70
2022-09-24T03:08:00.394Z,5.70
2022-09-24T03:09:00.283Z,5.70
2022-09-24T03:10:00.285Z,5.70
2022-09-24T03:11:00.274Z,5.70
2022-09-24T03:12:00.471Z,5.70
2022-09-24T03:13:00.270Z,5.70
2022-09-24T03:14:00.486Z,5.70
2022-09-24T03:15:00.415Z,5.70
2022-09-24T03:16:00.722Z,5.70
2022-09-24T03:17:00.546Z,5.70
2022-09-24T03:18:00.285Z,5.70
2022-09-24T03:19:00.335Z,5.70
2022-09-24T03:20:00.461Z,5.70
2022-09-24T03:21:01.568Z,5.70
2022-09-24T03:22:00.263Z,5.70
2022-09-24T03:23:00.302Z,5.70
2022-09-24T03:24:00.386Z,5.70
2022-09-24T03:25:00.415Z,5.70
2022-09-24T03:26:00.306Z,5.70
2022-09-24T03:27:00.316Z,5.70
2022-09-24T03:28:00.390Z,5.70
2022-09-24T03:29:00.277Z,5.70
2022-09-24T03:30:00.286Z,5.70
2022-09-24T03:31:00.432Z,5.70
2022-09-24T03:32:00.395Z,5.70
2022-09-24T03:33:00.280Z,5.70
2022-09-24T03:34:00.288Z,5.70
2022-09-24T03:35:00.276Z,5.70
2022-09-24T03:36:04.936Z,5.70
2022-09-24T03:37:00.288Z,5.70
2022-09-24T03:38:00.337Z,5.70
2022-09-24T03:39:00.292Z,5.70
2022-09-24T03:40:00.389Z,5.70
2022-09-24T03:41:00.826Z,5.70
2022-09-24T03:42:00.310Z,5.70
2022-09-24T03:43:00.275Z,5.70
2022-09-24T03:44:00.464Z,5.70
2022-09-24T03:45:00.416Z,5.70
2022-09-24T03:46:00.721Z,5.70
2022-09-24T03:47:00.289Z,6.50
2022-09-24T03:48:00.412Z,6.50
2022-09-24T03:49:00.382Z,6.50
2022-09-24T03:50:00.433Z,6.50
2022-09-24T03:51:08.989Z,6.50
2022-09-24T03:52:00.399Z,6.50
2022-09-24T03:53:00.296Z,6.50
2022-09-24T03:54:00.290Z,6.50
2022-09-24T03:55:00.300Z,6.50
2022-09-24T03:56:00.458Z,6.50
2022-09-24T03:57:00.292Z,6.50
2022-09-24T03:58:00.295Z,6.50
2022-09-24T03:59:00.283Z,6.50
2022-09-24T04:00:00.461Z,6.50
2022-09-24T04:01:00.455Z,6.50
2022-09-24T04:02:00.292Z,6.50
2022-09-24T04:03:00.367Z,6.50
2022-09-24T04:04:00.423Z,6.50
2022-09-24T04:05:00.338Z,6.50
2022-09-24T04:06:00.291Z,6.50
2022-09-24T04:07:00.286Z,6.50
2022-09-24T04:08:00.551Z,6.50
2022-09-24T04:09:00.339Z,6.50
2022-09-24T04:10:00.390Z,6.50
2022-09-24T04:11:00.469Z,6.50
2022-09-24T04:12:00.370Z,6.50
2022-09-24T04:13:00.325Z,6.50
2022-09-24T04:14:00.508Z,6.50
2022-09-24T04:15:00.388Z,6.50
2022-09-24T04:16:01.274Z,6.50
2022-09-24T04:17:00.267Z,5.60
2022-09-24T04:18:00.287Z,5.60
2022-09-24T04:19:00.272Z,5.60
2022-09-24T04:20:00.391Z,5.60
2022-09-24T04:21:00.483Z,5.60
2022-09-24T04:22:00.269Z,5.60
2022-09-24T04:23:00.479Z,5.60
2022-09-24T04:24:00.349Z,5.60
2022-09-24T04:25:00.293Z,5.60
2022-09-24T04:26:00.732Z,5.60
2022-09-24T04:27:00.285Z,5.60
2022-09-24T04:28:01.913Z,5.60
2022-09-24T04:29:00.300Z,5.60
2022-09-24T04:30:00.349Z,5.60
2022-09-24T04:31:00.438Z,5.60
2022-09-24T04:32:00.407Z,5.60
2022-09-24T04:33:00.469Z,5.60
2022-09-24T04:34:00.283Z,5.60
2022-09-24T04:35:04.116Z,5.60
2022-09-24T04:36:00.404Z,5.60
2022-09-24T04:37:00.312Z,5.60
2022-09-24T04:38:00.715Z,5.60
2022-09-24T04:39:00.266Z,5.60
2022-09-24T04:40:00.571Z,5.60
2022-09-24T04:41:04.582Z,5.60
2022-09-24T04:42:00.258Z,5.60
2022-09-24T04:43:01.136Z,5.60
2022-09-24T04:44:00.360Z,5.60
2022-09-24T04:45:00.280Z,5.60
2022-09-24T04:46:00.361Z,5.60
2022-09-24T04:47:00.396Z,5.50
2022-09-24T04:48:00.408Z,5.50
2022-09-24T04:49:00.259Z,5.50
2022-09-24T04:50:00.451Z,5.50
2022-09-24T04:51:00.348Z,5.50
2022-09-24T04:52:00.461Z,5.50
2022-09-24T04:53:00.597Z,5.50
2022-09-24T04:54:00.723Z,5.50
2022-09-24T04:55:00.364Z,5.50
2022-09-24T04:56:00.443Z,5.50
2022-09-24T04:57:00.292Z,5.50
2022-09-24T04:58:00.316Z,5.50
2022-09-24T04:59:00.283Z,5.50
2022-09-24T05:00:00.641Z,5.50
2022-09-24T05:01:01.177Z,5.50
2022-09-24T05:02:00.568Z,5.50
2022-09-24T05:03:01.248Z,5.50
2022-09-24T05:04:00.372Z,5.50
2022-09-24T05:05:00.305Z,5.50
2022-09-24T05:06:00.321Z,5.50
2022-09-24T05:07:00.287Z,5.50
2022-09-24T05:08:00.616Z,5.50
2022-09-24T05:09:00.335Z,5.50
2022-09-24T05:10:00.389Z,5.50
2022-09-24T05:11:00.276Z,5.50
2022-09-24T05:12:01.129Z,5.50
2022-09-24T05:13:00.404Z,5.50
2022-09-24T05:14:00.351Z,5.50
2022-09-24T05:15:00.292Z,5.50
2022-09-24T05:16:01.367Z,5.50
2022-09-24T05:17:00.368Z,6.80
2022-09-24T05:18:00.335Z,6.80
2022-09-24T05:19:00.280Z,6.80
2022-09-24T05:20:00.434Z,6.80
2022-09-24T05:21:00.274Z,6.80
2022-09-24T05:22:00.286Z,6.80
2022-09-24T05:23:00.288Z,6.80
2022-09-24T05:24:00.323Z,6.80
2022-09-24T05:25:00.286Z,6.80
2022-09-24T05:26:00.283Z,6.80
2022-09-24T05:27:00.364Z,6.80
2022-09-24T05:28:00.397Z,6.80
2022-09-24T05:29:00.307Z,6.80
2022-09-24T05:30:00.473Z,6.80
2022-09-24T05:31:00.408Z,6.80
2022-09-24T05:32:02.599Z,6.80
2022-09-24T05:33:00.267Z,6.80
2022-09-24T05:34:00.274Z,6.80
2022-09-24T05:35:00.310Z,6.80
2022-09-24T05:36:00.418Z,6.80
2022-09-24T05:37:00.787Z,6.80
2022-09-24T05:38:00.285Z,6.80
2022-09-24T05:39:00.329Z,6.80
2022-09-24T05:40:00.422Z,6.80
2022-09-24T05:41:00.602Z,6.80
2022-09-24T05:42:00.700Z,6.80
2022-09-24T05:43:00.573Z,6.80
2022-09-24T05:44:00.342Z,6.80
2022-09-24T05:45:00.310Z,6.80
2022-09-24T05:46:00.361Z,6.80
2022-09-24T05:47:00.418Z,6.00
2022-09-24T05:48:00.491Z,6.00
2022-09-24T05:49:00.281Z,6.00
2022-09-24T05:50:00.294Z,6.00
2022-09-24T05:51:00.752Z,6.00
2022-09-24T05:52:00.412Z,6.00
2022-09-24T05:53:00.532Z,6.00
2022-09-24T05:54:00.371Z,6.00
2022-09-24T05:55:00.280Z,6.00
2022-09-24T05:56:00.436Z,6.00
2022-09-24T05:57:00.290Z,6.00
2022-09-24T05:58:04.500Z,6.00
2022-09-24T05:59:00.309Z,6.00
2022-09-24T06:00:00.556Z,6.00
2022-09-24T06:01:00.357Z,6.00
2022-09-24T06:02:00.384Z,6.00
2022-09-24T06:03:02.649Z,6.00
2022-09-24T06:04:03.609Z,6.00
2022-09-24T06:05:00.320Z,6.00
2022-09-24T06:06:00.277Z,6.00
2022-09-24T06:07:00.325Z,6.00
2022-09-24T06:08:01.450Z,6.00
2022-09-24T06:09:00.288Z,6.00
2022-09-24T06:10:00.346Z,6.00
2022-09-24T06:11:02.877Z,6.00
2022-09-24T06:12:00.397Z,6.00
2022-09-24T06:13:00.280Z,6.00
2022-09-24T06:14:01.050Z,6.00
2022-09-24T06:15:00.657Z,6.00
2022-09-24T06:16:01.617Z,6.00
2022-09-24T06:17:00.275Z,5.80
2022-09-24T06:18:00.395Z,5.80
2022-09-24T06:19:00.388Z,5.80
2022-09-24T06:20:00.399Z,5.80
2022-09-24T06:21:01.014Z,5.80
2022-09-24T06:22:00.353Z,5.80
2022-09-24T06:23:00.278Z,5.80
2022-09-24T06:24:00.396Z,5.80
2022-09-24T06:25:00.292Z,5.80
2022-09-24T06:26:00.357Z,5.80
2022-09-24T06:27:00.287Z,5.80
2022-09-24T06:28:01.426Z,5.80
2022-09-24T06:29:09.827Z,5.80
2022-09-24T06:30:00.342Z,5.80
2022-09-24T06:31:00.645Z,5.80
2022-09-24T06:32:00.407Z,5.80
2022-09-24T06:33:01.222Z,5.80
2022-09-24T06:34:00.294Z,5.80
2022-09-24T06:35:00.284Z,5.80
2022-09-24T06:36:01.555Z,5.80
2022-09-24T06:37:00.294Z,5.80
2022-09-24T06:38:00.760Z,5.80
2022-09-24T06:39:00.292Z,5.80
2022-09-24T06:40:00.408Z,5.80
2022-09-24T06:41:01.483Z,5.80
2022-09-24T06:42:00.296Z,5.80
2022-09-24T06:43:00.269Z,5.80
2022-09-24T06:44:00.448Z,5.80
2022-09-24T06:45:00.277Z,5.80
2022-09-24T06:46:00.375Z,5.80
2022-09-24T06:47:00.612Z,5.70
2022-09-24T06:48:01.257Z,5.70
2022-09-24T06:49:00.299Z,5.70
2022-09-24T06:50:00.285Z,5.70
2022-09-24T06:51:02.976Z,5.70
2022-09-24T06:52:00.797Z,5.70
2022-09-24T06:53:03.407Z,5.70
2022-09-24T06:54:00.277Z,5.70
2022-09-24T06:55:00.379Z,5.70
2022-09-24T06:56:00.388Z,5.70
2022-09-24T06:57:00.274Z,5.70
2022-09-24T06:58:01.464Z,5.70
2022-09-24T06:59:00.287Z,5.70
2022-09-24T07:00:00.468Z,5.70
2022-09-24T07:01:01.036Z,5.70
2022-09-24T07:02:00.356Z,5.70
2022-09-24T07:03:00.487Z,5.70
2022-09-24T07:04:00.415Z,5.70
2022-09-24T07:05:00.320Z,5.70
2022-09-24T07:06:01.529Z,5.70
2022-09-24T07:07:00.376Z,5.70
2022-09-24T07:08:00.430Z,5.70
2022-09-24T07:09:00.278Z,5.70
2022-09-24T07:10:02.940Z,5.70
2022-09-24T07:11:00.297Z,5.70
2022-09-24T07:12:00.415Z,5.70
2022-09-24T07:13:00.285Z,5.70
2022-09-24T07:14:00.279Z,5.70
2022-09-24T07:15:00.331Z,5.70
2022-09-24T07:16:00.476Z,5.70
2022-09-24T07:17:00.282Z,8.70
2022-09-24T07:18:00.281Z,8.70
2022-09-24T07:19:00.368Z,8.70
2022-09-24T07:20:00.460Z,8.70
2022-09-24T07:21:00.300Z,8.70
2022-09-24T07:22:00.293Z,8.70
2022-09-24T07:23:00.286Z,8.70
2022-09-24T07:24:00.325Z,8.70
2022-09-24T07:25:00.286Z,8.70
2022-09-24T07:26:00.277Z,8.70
2022-09-24T07:27:02.532Z,8.70
2022-09-24T07:28:02.767Z,8.70
2022-09-24T07:29:00.300Z,8.70
2022-09-24T07:30:00.411Z,8.70
2022-09-24T07:31:00.713Z,8.70
2022-09-24T07:32:00.680Z,8.70
2022-09-24T07:33:00.330Z,8.70
2022-09-24T07:34:00.278Z,8.70
2022-09-24T07:35:00.414Z,8.70
2022-09-24T07:36:03.049Z,8.70
2022-09-24T07:37:00.292Z,8.70
2022-09-24T07:38:02.350Z,8.70
2022-09-24T07:39:00.296Z,8.70
2022-09-24T07:40:00.444Z,8.70
2022-09-24T07:41:00.432Z,8.70
2022-09-24T07:42:00.298Z,8.70
2022-09-24T07:43:00.304Z,8.70
2022-09-24T07:44:00.400Z,8.70
2022-09-24T07:45:00.306Z,8.70
2022-09-24T07:46:00.286Z,8.70
2022-09-24T07:47:00.353Z,10.50
2022-09-24T07:48:01.198Z,10.50
2022-09-24T07:49:00.585Z,10.50
2022-09-24T07:50:00.281Z,10.50
2022-09-24T07:51:00.303Z,10.50
2022-09-24T07:52:00.430Z,10.50
2022-09-24T07:53:00.421Z,10.50
2022-09-24T07:54:00.275Z,10.50
2022-09-24T07:55:00.574Z,10.50
2022-09-24T07:56:00.421Z,10.50
2022-09-24T07:57:00.373Z,10.50
2022-09-24T07:58:00.276Z,10.50
2022-09-24T07:59:00.274Z,10.50
2022-09-24T08:00:00.356Z,10.50
2022-09-24T08:01:00.299Z,10.50
2022-09-24T08:02:00.515Z,10.50
2022-09-24T08:03:01.851Z,10.50
2022-09-24T08:04:00.416Z,10.50
2022-09-24T08:05:00.297Z,10.50
2022-09-24T08:06:00.330Z,10.50
2022-09-24T08:07:00.277Z,10.50
2022-09-24T08:08:00.447Z,10.50
2022-09-24T08:09:00.638Z,10.50
2022-09-24T08:10:00.283Z,10.50
2022-09-24T08:11:02.204Z,10.50
2022-09-24T08:12:00.418Z,10.50
2022-09-24T08:13:00.888Z,10.50
2022-09-24T08:14:00.319Z,10.50
2022-09-24T08:15:00.280Z,10.50
2022-09-24T08:16:00.860Z,10.50
2022-09-24T08:17:00.338Z,8.60
2022-09-24T08:18:00.969Z,8.60
2022-09-24T08:19:00.330Z,8.60
2022-09-24T08:20:00.425Z,8.60
2022-09-24T08:21:04.812Z,8.60
2022-09-24T08:22:00.270Z,8.60
2022-09-24T08:23:00.770Z,8.60
2022-09-24T08:24:00.403Z,8.60
2022-09-24T08:25:00.561Z,8.60
2022-09-24T08:26:00.275Z,8.60
2022-09-24T08:27:00.289Z,8.60
2022-09-24T08:28:01.172Z,8.60
2022-09-24T08:29:00.271Z,8.60
2022-09-24T08:30:00.366Z,8.60
2022-09-24T08:31:01.954Z,8.60
2022-09-24T08:32:00.595Z,8.60
2022-09-24T08:33:00.619Z,8.60
2022-09-24T08:34:00.301Z,8.60
2022-09-24T08:35:00.306Z,8.60
2022-09-24T08:36:01.208Z,8.60
2022-09-24T08:37:00.354Z,8.60
2022-09-24T08:38:00.568Z,8.60
2022-09-24T08:39:00.305Z,8.60
2022-09-24T08:40:00.394Z,8.60
2022-09-24T08:41:01.285Z,8.60
2022-09-24T08:42:02.766Z,8.60
2022-09-24T08:43:10.172Z,8.60
2022-09-24T08:44:02.949Z,8.60
2022-09-24T08:45:01.497Z,8.60
2022-09-24T08:46:01.651Z,8.60
2022-09-24T08:47:02.398Z,8.80
2022-09-24T08:48:07.803Z,8.80
2022-09-24T08:49:01.397Z,8.80
2022-09-24T08:50:05.391Z,8.80
2022-09-24T08:51:02.236Z,8.80
2022-09-24T08:52:08.872Z,8.80
2022-09-24T08:53:10.174Z,8.80
2022-09-24T08:54:06.962Z,8.80
2022-09-24T08:55:03.778Z,8.80
2022-09-24T08:56:00.542Z,8.80
2022-09-24T08:57:02.095Z,8.80
2022-09-24T08:58:10.171Z,8.80
2022-09-24T08:59:04.249Z,8.80
2022-09-24T09:00:00.445Z,8.80
2022-09-24T09:01:01.305Z,8.80
2022-09-24T09:02:01.447Z,8.80
2022-09-24T09:03:05.359Z,8.80
2022-09-24T09:04:10.175Z,8.80
2022-09-24T09:05:10.193Z,8.80
2022-09-24T09:06:01.884Z,8.80
2022-09-24T09:07:01.353Z,8.80
2022-09-24T09:08:01.845Z,8.80
2022-09-24T09:09:08.077Z,8.80
2022-09-24T09:10:03.194Z,8.80
2022-09-24T09:11:01.718Z,8.80
2022-09-24T09:12:02.815Z,8.80
2022-09-24T09:13:05.742Z,8.80
2022-09-24T09:14:03.594Z,8.80
2022-09-24T09:15:10.192Z,8.80
2022-09-24T09:16:03.900Z,8.80
2022-09-24T09:17:02.723Z,11.10
2022-09-24T09:18:03.746Z,11.10
2022-09-24T09:19:03.791Z,11.10
2022-09-24T09:20:02.159Z,11.10
2022-09-24T09:21:09.736Z,11.10
2022-09-24T09:22:05.779Z,11.10
2022-09-24T09:23:04.980Z,11.10
2022-09-24T09:24:01.670Z,11.10
2022-09-24T09:25:04.385Z,11.10
2022-09-24T09:26:00.310Z,11.10
2022-09-24T09:27:00.315Z,11.10
2022-09-24T09:28:02.120Z,11.10
2022-09-24T09:29:00.444Z,11.10
2022-09-24T09:30:03.078Z,11.10
2022-09-24T09:31:00.342Z,11.10
2022-09-24T09:32:07.258Z,11.10
2022-09-24T09:33:05.625Z,11.10
2022-09-24T09:34:07.756Z,11.10
2022-09-24T09:35:03.613Z,11.10
2022-09-24T09:36:01.298Z,11.10
2022-09-24T09:37:03.603Z,11.10
2022-09-24T09:38:10.176Z,11.10
2022-09-24T09:39:04.951Z,11.10
2022-09-24T09:40:10.318Z,11.10
2022-09-24T09:41:05.871Z,11.10
2022-09-24T09:42:03.585Z,11.10
2022-09-24T09:43:02.737Z,11.10
2022-09-24T09:44:09.778Z,11.10
2022-09-24T09:45:01.885Z,11.10
2022-09-24T09:46:03.649Z,11.10
2022-09-24T09:47:04.573Z,8.50
2022-09-24T09:48:00.363Z,8.50
2022-09-24T09:49:03.372Z,8.50
2022-09-24T09:50:04.204Z,8.50
2022-09-24T09:51:01.969Z,8.50
2022-09-24T09:52:03.454Z,8.50
2022-09-24T09:53:00.321Z,8.50
2022-09-24T09:54:01.052Z,8.50
2022-09-24T09:55:00.285Z,8.50
2022-09-24T09:56:02.200Z,8.50
2022-09-24T09:57:01.392Z,8.50
2022-09-24T09:58:08.647Z,8.50
2022-09-24T09:59:01.595Z,8.50
2022-09-24T10:00:01.107Z,8.50
2022-09-24T10:01:10.188Z,8.50
2022-09-24T10:02:00.447Z,8.50
2022-09-24T10:03:00.527Z,8.50
2022-09-24T10:04:01.357Z,8.50
2022-09-24T10:05:01.355Z,8.50
2022-09-24T10:06:02.051Z,8.50
2022-09-24T10:07:10.178Z,8.50
2022-09-24T10:08:00.405Z,8.50
2022-09-24T10:09:10.177Z,8.50
2022-09-24T10:10:10.209Z,8.50
2022-09-24T10:11:01.016Z,8.50
2022-09-24T10:12:08.230Z,8.50
2022-09-24T10:13:08.581Z,8.50
2022-09-24T10:14:01.339Z,8.50
2022-09-24T10:15:03.512Z,8.50
2022-09-24T10:16:02.300Z,8.50
2022-09-24T10:17:01.289Z,7.90
2022-09-24T10:18:00.273Z,7.90
2022-09-24T10:19:00.313Z,7.90
2022-09-24T10:20:01.307Z,7.90
2022-09-24T10:21:02.119Z,7.90
2022-09-24T10:22:10.186Z,7.90
2022-09-24T10:23:02.235Z,7.90
2022-09-24T10:24:05.673Z,7.90
2022-09-24T10:25:00.494Z,7.90
2022-09-24T10:26:01.117Z,7.90
2022-09-24T10:27:08.826Z,7.90
2022-09-24T10:28:01.457Z,7.90
2022-09-24T10:29:00.441Z,7.90
2022-09-24T10:30:01.548Z,7.90
2022-09-24T10:31:02.950Z,7.90
2022-09-24T10:32:01.376Z,7.90
2022-09-24T10:33:01.895Z,7.90
2022-09-24T10:34:00.651Z,7.90
2022-09-24T10:35:10.190Z,7.90
2022-09-24T10:36:03.883Z,7.90
2022-09-24T10:37:05.112Z,7.90
2022-09-24T10:38:01.325Z,7.90
2022-09-24T10:39:02.853Z,7.90
2022-09-24T10:40:01.623Z,7.90
2022-09-24T10:41:00.335Z,7.90
2022-09-24T10:42:00.282Z,7.90
2022-09-24T10:43:01.077Z,7.90
2022-09-24T10:44:03.321Z,7.90
2022-09-24T10:45:00.645Z,7.90
2022-09-24T10:46:10.220Z,7.90
2022-09-24T10:47:10.177Z,4.80
2022-09-24T10:48:05.502Z,4.80
2022-09-24T10:49:03.606Z,4.80
2022-09-24T10:50:05.291Z,4.80
2022-09-24T10:51:01.285Z,4.80
2022-09-24T10:52:10.211Z,4.80
2022-09-24T10:53:06.858Z,4.80
2022-09-24T10:54:01.312Z,4.80
2022-09-24T10:55:10.206Z,4.80
2022-09-24T10:56:07.510Z,4.80
2022-09-24T10:57:05.348Z,4.80
2022-09-24T10:58:03.602Z,4.80
2022-09-24T10:59:10.178Z,4.80
2022-09-24T11:00:03.369Z,4.80
2022-09-24T11:01:10.173Z,4.80
2022-09-24T11:02:10.378Z,4.80
2022-09-24T11:03:10.307Z,4.80
2022-09-24T11:04:10.237Z,4.80
2022-09-24T11:05:06.901Z,4.80
2022-09-24T11:06:07.734Z,4.80
2022-09-24T11:07:10.180Z,4.80
2022-09-24T11:08:10.185Z,4.80
2022-09-24T11:09:10.173Z,4.80
2022-09-24T11:10:10.293Z,4.80
2022-09-24T11:11:10.183Z,4.80
2022-09-24T11:12:09.625Z,4.80
2022-09-24T11:13:10.196Z,4.80
2022-09-24T11:14:01.285Z,4.80
2022-09-24T11:15:08.848Z,4.80
2022-09-24T11:16:10.223Z,4.80
2022-09-24T11:17:10.213Z,4.40
2022-09-24T11:18:10.175Z,4.40
2022-09-24T11:19:01.234Z,4.40
2022-09-24T11:20:10.225Z,4.40
2022-09-24T11:21:10.186Z,4.40
2022-09-24T11:22:06.920Z,4.40
2022-09-24T11:23:10.196Z,4.40
2022-09-24T11:24:09.308Z,4.40
2022-09-24T11:25:10.200Z,4.40
2022-09-24T11:26:03.573Z,4.40
2022-09-24T11:27:00.355Z,4.40
2022-09-24T11:28:00.283Z,4.40
2022-09-24T11:29:10.188Z,4.40
2022-09-24T11:30:07.237Z,4.40
2022-09-24T11:31:10.245Z,4.40
2022-09-24T11:32:10.182Z,4.40
2022-09-24T11:33:10.194Z,4.40
2022-09-24T11:34:07.065Z,4.40
2022-09-24T11:35:01.302Z,4.40
2022-09-24T11:36:10.186Z,4.40
2022-09-24T11:37:01.289Z,4.40
2022-09-24T11:38:00.323Z,4.40
2022-09-24T11:39:10.188Z,4.40
2022-09-24T11:40:09.619Z,4.40
2022-09-24T11:41:10.185Z,4.40
2022-09-24T11:42:06.607Z,4.40
2022-09-24T11:43:10.284Z,4.40
2022-09-24T11:44:08.669Z,4.40
2022-09-24T11:45:10.196Z,4.40
2022-09-24T11:46:10.267Z,4.40
2022-09-24T11:47:03.605Z,3.70
2022-09-24T11:48:10.189Z,3.70
2022-09-24T11:49:03.542Z,3.70
2022-09-24T11:50:01.283Z,3.70
2022-09-24T11:51:10.238Z,3.70
2022-09-24T11:52:00.323Z,3.70
2022-09-24T11:53:04.666Z,3.70
2022-09-24T11:54:00.323Z,3.70
2022-09-24T11:55:04.684Z,3.70
2022-09-24T11:56:07.185Z,3.70
2022-09-24T11:57:10.211Z,3.70
2022-09-24T11:58:10.208Z,3.70
2022-09-24T11:59:01.359Z,3.70
2022-09-24T12:00:06.130Z,3.70
2022-09-24T12:01:07.934Z,3.70
2022-09-24T12:02:05.038Z,3.70
2022-09-24T12:03:05.057Z,3.70
2022-09-24T12:04:04.690Z,3.70
2022-09-24T12:05:03.548Z,3.70
2022-09-24T12:06:03.083Z,3.70
2022-09-24T12:07:05.503Z,3.70
2022-09-24T12:08:10.237Z,3.70
2022-09-24T12:09:08.731Z,3.70
2022-09-24T12:10:05.928Z,3.70
2022-09-24T12:11:06.195Z,3.70
2022-09-24T12:12:10.177Z,3.70
2022-09-24T12:13:08.391Z,3.70
2022-09-24T12:14:10.245Z,3.70
2022-09-24T12:15:01.288Z,3.70
2022-09-24T12:16:03.750Z,3.70
2022-09-24T12:17:04.207Z,2.80
2022-09-24T12:18:07.905Z,2.80
2022-09-24T12:19:08.326Z,2.80
2022-09-24T12:20:02.521Z,2.80
2022-09-24T12:21:04.654Z,2.80
2022-09-24T12:22:01.028Z,2.80
2022-09-24T12:23:05.985Z,2.80
2022-09-24T12:24:05.286Z,2.80
2022-09-24T12:25:00.673Z,2.80
2022-09-24T12:26:02.975Z,2.80
2022-09-24T12:27:03.009Z,2.80
2022-09-24T12:28:00.505Z,2.80
2022-09-24T12:29:07.853Z,2.80
2022-09-24T12:30:03.589Z,2.80
2022-09-24T12:31:01.087Z,2.80
2022-09-24T12:32:06.212Z,2.80
2022-09-24T12:33:00.265Z,2.80
2022-09-24T12:34:10.243Z,2.80
2022-09-24T12:35:07.540Z,2.80
2022-09-24T12:36:10.185Z,2.80
2022-09-24T12:37:02.604Z,2.80
2022-09-24T12:38:04.936Z,2.80
2022-09-24T12:39:03.590Z,2.80
2022-09-24T12:40:01.307Z,2.80
2022-09-24T12:41:00.397Z,2.80
2022-09-24T12:42:05.734Z,2.80
2022-09-24T12:43:01.572Z,2.80
2022-09-24T12:44:07.713Z,2.80
2022-09-24T12:45:01.070Z,2.80
2022-09-24T12:46:02.418Z,2.80
2022-09-24T12:47:00.543Z,2.50
2022-09-24T12:48:01.379Z,2.50
2022-09-24T12:49:00.418Z,2.50
2022-09-24T12:50:02.195Z,2.50
2022-09-24T12:51:02.425Z,2.50
2022-09-24T12:52:10.213Z,2.50
2022-09-24T12:53:00.306Z,2.50
2022-09-24T12:54:10.261Z,2.50
2022-09-24T12:55:01.662Z,2.50
2022-09-24T12:56:01.292Z,2.50
2022-09-24T12:57:05.919Z,2.50
2022-09-24T12:58:04.816Z,2.50
2022-09-24T12:59:00.345Z,2.50
2022-09-24T13:00:03.566Z,2.50
2022-09-24T13:01:10.194Z,2.50
2022-09-24T13:02:10.429Z,2.50
2022-09-24T13:03:00.721Z,2.50
2022-09-24T13:04:04.700Z,2.50
2022-09-24T13:05:00.275Z,2.50
2022-09-24T13:06:01.048Z,2.50
2022-09-24T13:07:00.300Z,2.50
2022-09-24T13:08:01.431Z,2.50
2022-09-24T13:09:00.476Z,2.50
2022-09-24T13:10:10.211Z,2.50
2022-09-24T13:11:01.682Z,2.50
2022-09-24T13:12:01.921Z,2.50
2022-09-24T13:13:01.531Z,2.50
2022-09-24T13:14:05.117Z,2.50
2022-09-24T13:15:02.927Z,2.50
2022-09-24T13:16:03.129Z,2.50